createdAt,value
2022-08-18T00:01:05.771Z,97666.28
2022-08-18T00:03:56.109Z,97680.06
2022-08-18T00:06:21.263Z,97682.00
2022-08-18T00:08:47.876Z,97688.44
2022-08-18T00:11:15.246Z,97682.56
2022-08-18T00:13:41.829Z,97681.28
2022-08-18T00:16:08.445Z,97671.94
2022-08-18T00:18:35.099Z,97670.19
2022-08-18T00:21:02.311Z,97672.25
2022-08-18T00:23:29.886Z,97674.28
2022-08-18T00:26:00.340Z,97669.34
2022-08-18T00:28:27.031Z,97671.88
2022-08-18T00:30:54.270Z,97665.03
2022-08-18T00:33:21.733Z,97665.97
2022-08-18T00:35:49.192Z,97674.47
2022-08-18T00:38:24.257Z,97681.72
2022-08-18T00:40:52.853Z,97674.41
2022-08-18T00:43:36.011Z,97681.72
2022-08-18T00:46:06.047Z,97676.44
2022-08-18T00:48:32.687Z,97680.88
2022-08-18T00:51:08.249Z,97677.81
2022-08-18T00:53:45.826Z,97678.94
2022-08-18T00:56:20.717Z,97674.31
2022-08-18T00:58:52.381Z,97680.91
2022-08-18T01:01:23.560Z,97681.63
2022-08-18T01:03:55.470Z,97689.06
2022-08-18T01:06:37.443Z,97683.50
2022-08-18T01:09:04.046Z,97680.31
2022-08-18T01:11:45.952Z,97680.13
2022-08-18T01:14:23.885Z,97678.53
2022-08-18T01:17:11.550Z,97680.88
2022-08-18T01:19:58.404Z,97682.94
2022-08-18T01:22:31.442Z,97690.50
2022-08-18T01:25:15.898Z,97683.50
2022-08-18T01:27:43.247Z,97678.88
2022-08-18T01:30:13.523Z,97689.97
2022-08-18T01:32:41.067Z,97694.88
2022-08-18T01:35:10.455Z,97697.59
2022-08-18T01:37:37.777Z,97692.41
2022-08-18T01:41:17.333Z,97695.66
2022-08-18T01:42:56.506Z,97696.69
2022-08-18T01:45:23.248Z,97702.22
2022-08-18T01:47:50.677Z,97691.59
2022-08-18T01:50:18.115Z,97689.59
2022-08-18T01:52:45.254Z,97693.25
2022-08-18T01:55:11.937Z,97700.25
2022-08-18T01:57:44.953Z,97690.88
2022-08-18T02:00:15.069Z,97700.66
2022-08-18T02:02:43.108Z,97698.66
2022-08-18T02:05:14.631Z,97702.75
2022-08-18T02:07:41.284Z,97698.09
2022-08-18T02:10:12.181Z,97706.06
2022-08-18T02:12:44.321Z,97701.88
2022-08-18T02:15:14.281Z,97712.06
2022-08-18T02:17:43.418Z,97719.13
2022-08-18T02:20:13.431Z,97716.16
2022-08-18T02:22:40.994Z,97718.44
2022-08-18T02:25:09.072Z,97727.47
2022-08-18T02:27:35.858Z,97729.56
2022-08-18T02:30:07.175Z,97741.31
2022-08-18T02:32:34.662Z,97747.28
2022-08-18T02:35:02.255Z,97762.19
2022-08-18T02:37:31.131Z,97755.75
2022-08-18T02:39:58.044Z,97751.38
2022-08-18T02:42:25.793Z,97762.41
2022-08-18T02:44:52.369Z,97750.06
2022-08-18T02:47:21.105Z,97753.44
2022-08-18T02:49:48.303Z,97757.31
2022-08-18T02:52:17.342Z,97748.38
2022-08-18T02:54:44.132Z,97750.16
2022-08-18T02:57:12.378Z,97734.25
2022-08-18T02:59:40.642Z,97736.84
2022-08-18T03:02:09.218Z,97749.00
2022-08-18T03:04:36.240Z,97755.13
2022-08-18T03:07:05.938Z,97752.72
2022-08-18T03:09:33.148Z,97754.72
2022-08-18T03:12:00.512Z,97762.41
2022-08-18T03:14:27.818Z,97763.19
2022-08-18T03:16:55.343Z,97763.81
2022-08-18T03:19:24.233Z,97769.53
2022-08-18T03:21:51.097Z,97773.19
2022-08-18T03:24:22.860Z,97781.94
2022-08-18T03:26:51.738Z,97777.50
2022-08-18T03:29:22.370Z,97787.63
2022-08-18T03:31:49.727Z,97784.03
2022-08-18T03:37:31.993Z,97799.25
2022-08-18T03:39:59.217Z,97804.34
2022-08-18T03:42:25.883Z,97803.41
2022-08-18T03:44:52.526Z,97807.19
2022-08-18T03:47:19.273Z,97822.69
2022-08-18T03:49:46.040Z,97832.78
2022-08-18T03:52:12.735Z,97831.50
2022-08-18T03:54:39.704Z,97832.41
2022-08-18T03:57:09.545Z,97836.00
2022-08-18T03:59:36.488Z,97823.97
2022-08-18T04:02:05.097Z,97828.56
2022-08-18T04:04:32.351Z,97831.22
2022-08-18T04:07:04.583Z,97834.53
2022-08-18T04:09:32.961Z,97842.44
2022-08-18T04:12:06.948Z,97844.91
2022-08-18T04:14:33.606Z,97845.72
2022-08-18T04:17:00.308Z,97841.22
2022-08-18T04:19:27.982Z,97852.47
2022-08-18T04:21:57.410Z,97852.88
2022-08-18T04:24:26.586Z,97862.22
2022-08-18T04:26:56.992Z,97870.28
2022-08-18T04:29:24.086Z,97867.78
2022-08-18T04:31:52.176Z,97867.31
2022-08-18T04:34:20.826Z,97869.00
2022-08-18T04:36:48.345Z,97862.75
2022-08-18T04:39:15.717Z,97864.06
2022-08-18T04:41:43.932Z,97872.81
2022-08-18T04:44:12.321Z,97862.69
2022-08-18T04:46:42.434Z,97870.75
2022-08-18T04:49:10.744Z,97880.59
2022-08-18T04:52:30.982Z,97884.56
2022-08-18T04:54:29.104Z,97886.38
2022-08-18T04:56:55.882Z,97895.81
2022-08-18T04:59:22.631Z,97898.66
2022-08-18T05:01:49.229Z,97894.34
2022-08-18T05:04:17.504Z,97893.53
2022-08-18T05:06:45.656Z,97900.31
2022-08-18T05:09:16.713Z,97881.50
2022-08-18T05:11:50.497Z,97879.63
2022-08-18T05:14:17.814Z,97879.25
2022-08-18T05:16:48.646Z,97882.66
2022-08-18T05:19:23.399Z,97885.31
2022-08-18T05:21:59.968Z,97879.41
2022-08-18T05:24:36.824Z,97871.41
2022-08-18T05:27:07.436Z,97869.16
2022-08-18T05:29:41.908Z,97871.75
2022-08-18T05:32:37.135Z,97870.53
2022-08-18T05:35:09.518Z,97873.13
2022-08-18T05:37:40.396Z,97880.44
2022-08-18T05:40:11.399Z,97887.13
2022-08-18T05:42:40.510Z,97880.31
2022-08-18T05:45:12.565Z,97894.03
2022-08-18T05:47:39.392Z,97894.53
2022-08-18T05:50:11.356Z,97896.47
2022-08-18T05:52:54.299Z,97898.66
2022-08-18T05:55:52.642Z,97902.47
2022-08-18T05:58:33.204Z,97906.31
2022-08-18T06:01:14.036Z,97914.47
2022-08-18T06:03:47.734Z,97937.84
2022-08-18T06:06:20.935Z,97943.25
2022-08-18T06:08:57.668Z,97943.00
2022-08-18T06:11:25.909Z,97948.59
2022-08-18T06:13:59.657Z,97967.66
2022-08-18T06:16:39.335Z,97972.25
2022-08-18T06:19:19.306Z,97965.72
2022-08-18T06:22:02.186Z,97978.56
2022-08-18T06:24:50.128Z,97987.16
2022-08-18T06:27:33.318Z,97995.28
2022-08-18T06:30:18.092Z,97991.34
2022-08-18T06:32:46.793Z,97981.22
2022-08-18T06:35:49.423Z,97985.84
2022-08-18T06:38:38.812Z,97993.03
2022-08-18T06:41:40.732Z,97999.69
2022-08-18T06:44:10.231Z,98009.53
2022-08-18T06:46:41.958Z,98010.34
2022-08-18T06:49:13.011Z,97997.72
2022-08-18T06:51:41.040Z,97989.94
2022-08-18T06:54:26.920Z,97983.78
2022-08-18T06:56:55.816Z,97980.44
2022-08-18T06:59:29.391Z,97970.97
2022-08-18T07:02:16.955Z,97972.38
2022-08-18T07:05:00.403Z,97972.09
2022-08-18T07:07:43.365Z,97985.94
2022-08-18T07:10:31.290Z,97974.34
2022-08-18T07:13:13.143Z,97968.31
2022-08-18T07:15:40.760Z,97973.25
2022-08-18T07:18:08.770Z,97978.78
2022-08-18T07:20:53.983Z,97981.97
2022-08-18T07:23:39.267Z,97987.22
2022-08-18T07:26:18.107Z,97975.63
2022-08-18T07:28:47.731Z,97975.28
2022-08-18T07:31:40.716Z,97983.72
2022-08-18T07:34:13.306Z,97990.56
2022-08-18T07:36:47.615Z,97986.94
2022-08-18T07:39:23.551Z,97990.91
2022-08-18T07:42:01.956Z,97987.59
2022-08-18T07:44:45.228Z,97983.28
2022-08-18T07:47:26.419Z,97978.84
2022-08-18T07:50:17.042Z,97993.31
2022-08-18T07:52:51.079Z,97976.94
2022-08-18T07:55:28.984Z,97960.88
2022-08-18T07:58:30.741Z,97951.31
2022-08-18T08:01:09.793Z,97937.47
2022-08-18T08:03:37.632Z,97933.66
2022-08-18T08:06:13.331Z,97923.66
2022-08-18T08:08:44.195Z,97916.50
2022-08-18T08:11:18.825Z,97884.22
2022-08-18T08:14:01.932Z,97844.63
2022-08-18T08:16:46.494Z,97820.78
2022-08-18T08:19:14.120Z,97816.91
2022-08-18T08:21:52.810Z,97826.09
2022-08-18T08:24:32.357Z,97827.97
2022-08-18T08:27:12.020Z,97845.53
2022-08-18T08:29:59.814Z,97863.03
2022-08-18T08:32:34.480Z,97883.72
2022-08-18T08:35:06.302Z,97898.75
2022-08-18T08:37:45.619Z,97897.25
2022-08-18T08:40:33.096Z,97887.06
2022-08-18T08:43:14.828Z,97884.56
2022-08-18T08:45:48.760Z,97885.03
2022-08-18T08:48:20.478Z,97889.00
2022-08-18T08:50:54.582Z,97868.47
2022-08-18T08:53:23.364Z,97865.88
2022-08-18T08:56:00.153Z,97844.53
2022-08-18T08:58:28.978Z,97846.22
2022-08-18T09:00:56.414Z,97848.94
2022-08-18T09:03:31.711Z,97843.41
2022-08-18T09:06:30.269Z,97838.72
2022-08-18T09:09:17.901Z,97843.16
2022-08-18T09:12:06.962Z,97840.31
2022-08-18T09:14:58.529Z,97840.50
2022-08-18T09:17:33.802Z,97838.28
2022-08-18T09:20:16.645Z,97844.31
2022-08-18T09:23:13.835Z,97833.63
2022-08-18T09:25:42.112Z,97829.59
2022-08-18T09:28:32.826Z,97821.72
2022-08-18T09:31:19.894Z,97810.38
2022-08-18T09:33:53.916Z,97813.56
2022-08-18T09:36:31.185Z,97817.03
2022-08-18T09:39:31.471Z,97794.50
2022-08-18T09:42:07.132Z,97798.25
2022-08-18T09:44:54.534Z,97797.66
2022-08-18T09:47:21.732Z,97797.31
2022-08-18T09:49:55.565Z,97783.72
2022-08-18T09:52:24.356Z,97781.47
2022-08-18T09:55:00.482Z,97769.47
2022-08-18T09:57:30.481Z,97757.47
2022-08-18T10:00:12.250Z,97766.16
2022-08-18T10:02:40.234Z,97758.53
2022-08-18T10:05:27.077Z,97776.94
2022-08-18T10:08:30.080Z,97768.84
2022-08-18T10:11:16.514Z,97780.53
2022-08-18T10:14:07.367Z,97769.75
2022-08-18T10:17:21.826Z,97769.50
2022-08-18T10:20:06.004Z,97773.59
2022-08-18T10:22:49.369Z,97775.19
2022-08-18T10:25:38.867Z,97784.72
2022-08-18T10:28:10.128Z,97787.19
2022-08-18T10:30:56.663Z,97777.72
2022-08-18T10:33:55.472Z,97775.09
2022-08-18T10:36:37.429Z,97779.19
2022-08-18T10:39:13.650Z,97788.16
2022-08-18T10:41:54.988Z,97796.22
2022-08-18T10:47:20.548Z,97781.25
2022-08-18T10:49:52.730Z,97783.09
2022-08-18T10:52:46.155Z,97788.25
2022-08-18T10:55:48.589Z,97793.50
2022-08-18T10:58:38.467Z,97792.59
2022-08-18T11:01:10.049Z,97793.03
2022-08-18T11:03:51.245Z,97781.63
2022-08-18T11:06:26.119Z,97790.91
2022-08-18T11:08:57.968Z,97784.16
2022-08-18T11:11:41.003Z,97779.59
2022-08-18T11:14:35.709Z,97771.28
2022-08-18T11:17:26.479Z,97768.63
2022-08-18T11:19:54.797Z,97768.88
2022-08-18T11:22:33.014Z,97765.72
2022-08-18T11:25:04.346Z,97766.13
2022-08-18T11:27:35.912Z,97766.25
2022-08-18T11:30:06.507Z,97766.44
2022-08-18T11:32:37.134Z,97773.88
2022-08-18T11:35:10.659Z,97756.78
2022-08-18T11:37:54.780Z,97765.66
2022-08-18T11:43:29.900Z,97761.06
2022-08-18T11:49:33.443Z,97748.56
2022-08-18T11:52:25.015Z,97742.59
2022-08-18T11:55:16.904Z,97747.91
2022-08-18T11:57:59.187Z,97746.81
2022-08-18T12:00:43.233Z,97743.69
2022-08-18T12:03:28.467Z,97738.25
2022-08-18T12:06:01.055Z,97725.41
2022-08-18T12:09:01.539Z,97732.69
2022-08-18T12:11:31.423Z,97720.63
2022-08-18T12:16:50.219Z,97688.41
2022-08-18T12:19:19.530Z,97668.38
2022-08-18T12:21:52.469Z,97661.91
2022-08-18T12:24:36.727Z,97668.91
2022-08-18T12:27:20.653Z,97672.34
2022-08-18T12:29:49.401Z,97673.31
2022-08-18T12:35:09.128Z,97681.75
2022-08-18T12:40:25.482Z,97677.53
2022-08-18T12:42:55.693Z,97678.53
2022-08-18T12:45:41.396Z,97668.44
2022-08-18T12:48:09.236Z,97665.16
2022-08-18T12:53:30.538Z,97649.66
2022-08-18T12:56:12.544Z,97627.44
2022-08-18T12:58:40.572Z,97625.56
2022-08-18T13:01:07.545Z,97621.91
2022-08-18T13:06:23.902Z,97648.16
2022-08-18T13:08:55.437Z,97653.63
2022-08-18T13:11:25.131Z,97656.41
2022-08-18T13:13:55.970Z,97658.63
2022-08-18T13:16:39.056Z,97659.97
2022-08-18T13:19:15.069Z,97671.72
2022-08-18T13:21:43.028Z,97663.91
2022-08-18T13:24:12.672Z,97640.28
2022-08-18T13:26:45.787Z,97644.06
2022-08-18T13:29:14.510Z,97650.28
2022-08-18T13:31:41.170Z,97647.44
2022-08-18T13:34:19.317Z,97642.78
2022-08-18T13:36:48.215Z,97641.47
2022-08-18T13:39:19.300Z,97638.84
2022-08-18T13:41:48.761Z,97625.53
2022-08-18T13:44:18.890Z,97627.16
2022-08-18T13:46:48.899Z,97625.09
2022-08-18T13:49:18.614Z,97625.97
2022-08-18T13:51:59.157Z,97636.75
2022-08-18T13:54:33.975Z,97650.34
2022-08-18T13:57:03.313Z,97656.19
2022-08-18T13:59:33.145Z,97658.47
2022-08-18T14:02:05.874Z,97665.41
2022-08-18T14:04:36.257Z,97668.91
2022-08-18T14:07:08.899Z,97663.13
2022-08-18T14:09:37.945Z,97680.25
2022-08-18T14:12:21.625Z,97679.78
2022-08-18T14:14:57.291Z,97672.66
2022-08-18T14:17:28.429Z,97688.09
2022-08-18T14:20:14.874Z,97677.34
2022-08-18T14:22:57.486Z,97686.16
2022-08-18T14:25:39.844Z,97679.09
2022-08-18T14:28:06.613Z,97686.22
2022-08-18T14:30:34.273Z,97673.28
2022-08-18T14:33:01.155Z,97674.78
2022-08-18T14:35:34.643Z,97680.19
2022-08-18T14:38:16.293Z,97698.00
2022-08-18T14:40:45.378Z,97711.22
2022-08-18T14:43:14.503Z,97720.03
2022-08-18T14:45:47.432Z,97709.84
2022-08-18T14:48:18.740Z,97697.75
2022-08-18T14:50:49.757Z,97684.41
2022-08-18T14:53:20.330Z,97653.44
2022-08-18T14:55:49.446Z,97667.44
2022-08-18T14:58:16.549Z,97645.34
2022-08-18T15:00:53.320Z,97609.88
2022-08-18T15:03:28.191Z,97584.34
2022-08-18T15:05:58.045Z,97533.09
2022-08-18T15:08:26.300Z,97478.31
2022-08-18T15:10:53.853Z,97450.00
2022-08-18T15:13:26.304Z,97470.28
2022-08-18T15:15:53.653Z,97489.94
2022-08-18T15:18:22.635Z,97503.50
2022-08-18T15:21:10.511Z,97522.38
2022-08-18T15:24:01.623Z,97531.09
2022-08-18T15:26:28.261Z,97531.03
2022-08-18T15:29:00.224Z,97531.94
2022-08-18T15:34:14.987Z,97572.06
2022-08-18T15:36:48.068Z,97567.69
2022-08-18T15:39:15.261Z,97565.13
2022-08-18T15:41:46.604Z,97564.06
2022-08-18T15:44:17.129Z,97560.34
2022-08-18T15:46:47.306Z,97562.06
2022-08-18T15:49:21.756Z,97548.06
2022-08-18T15:51:50.404Z,97544.69
2022-08-18T15:54:27.833Z,97541.94
2022-08-18T15:56:57.747Z,97553.91
2022-08-18T15:59:49.737Z,97543.53
2022-08-18T16:02:22.112Z,97562.56
2022-08-18T16:04:50.545Z,97561.94
2022-08-18T16:07:17.822Z,97558.22
2022-08-18T16:09:58.585Z,97560.94
2022-08-18T16:12:25.215Z,97557.03
2022-08-18T16:14:53.322Z,97561.97
2022-08-18T16:17:48.674Z,97565.38
2022-08-18T16:20:18.609Z,97571.09
2022-08-18T16:22:46.914Z,97561.16
2022-08-18T16:25:14.926Z,97561.78
2022-08-18T16:27:50.131Z,97556.25
2022-08-18T16:30:23.100Z,97556.16
2022-08-18T16:32:56.628Z,97548.38
2022-08-18T16:35:25.665Z,97542.66
2022-08-18T16:37:52.564Z,97541.19
2022-08-18T16:40:20.406Z,97546.09
2022-08-18T16:42:47.957Z,97548.69
2022-08-18T16:45:21.692Z,97535.84
2022-08-18T16:47:48.529Z,97544.56
2022-08-18T16:50:18.235Z,97553.13
2022-08-18T16:52:45.021Z,97539.56
2022-08-18T16:55:16.363Z,97527.19
2022-08-18T16:57:59.787Z,97528.53
2022-08-18T17:00:43.626Z,97540.06
2022-08-18T17:03:25.647Z,97532.84
2022-08-18T17:06:10.891Z,97538.25
2022-08-18T17:08:38.928Z,97530.25
2022-08-18T17:11:09.569Z,97545.94
2022-08-18T17:13:45.702Z,97563.78
2022-08-18T17:16:13.540Z,97552.72
2022-08-18T17:18:41.459Z,97550.25
2022-08-18T17:21:12.789Z,97546.50
2022-08-18T17:23:41.984Z,97536.38
2022-08-18T17:26:16.484Z,97538.53
2022-08-18T17:28:52.596Z,97527.91
2022-08-18T17:31:24.499Z,97539.44
2022-08-18T17:33:54.847Z,97539.63
2022-08-18T17:36:32.875Z,97543.34
2022-08-18T17:39:02.940Z,97537.16
2022-08-18T17:41:29.693Z,97540.06
2022-08-18T17:44:00.853Z,97548.88
2022-08-18T17:46:38.321Z,97549.09
2022-08-18T17:49:45.889Z,97548.84
2022-08-18T17:52:14.932Z,97547.50
2022-08-18T17:54:49.639Z,97548.50
2022-08-18T17:57:23.956Z,97557.94
2022-08-18T17:59:57.984Z,97550.06
2022-08-18T18:02:29.142Z,97554.09
2022-08-18T18:05:00.687Z,97563.69
2022-08-18T18:07:29.686Z,97558.94
2022-08-18T18:10:03.063Z,97552.28
2022-08-18T18:12:32.261Z,97549.78
2022-08-18T18:15:00.630Z,97549.16
2022-08-18T18:17:37.843Z,97545.66
2022-08-18T18:20:32.893Z,97559.94
2022-08-18T18:23:21.626Z,97564.44
2022-08-18T18:25:50.275Z,97565.44
2022-08-18T18:28:33.862Z,97566.91
2022-08-18T18:31:22.267Z,97570.25
2022-08-18T18:33:56.900Z,97575.19
2022-08-18T18:36:40.333Z,97576.50
2022-08-18T18:39:10.645Z,97577.63
2022-08-18T18:41:40.615Z,97584.03
2022-08-18T18:44:10.863Z,97578.50
2022-08-18T18:47:12.718Z,97582.06
2022-08-18T18:49:46.855Z,97588.72
2022-08-18T18:52:14.511Z,97587.66
2022-08-18T18:54:53.770Z,97595.94
2022-08-18T18:57:35.086Z,97595.34
2022-08-18T19:00:22.709Z,97604.09
2022-08-18T19:03:21.723Z,97609.03
2022-08-18T19:06:03.606Z,97607.16
2022-08-18T19:08:42.585Z,97612.56
2022-08-18T19:11:16.004Z,97605.91
2022-08-18T19:13:49.499Z,97605.59
2022-08-18T19:16:36.671Z,97609.44
2022-08-18T19:19:35.555Z,97614.69
2022-08-18T19:22:24.217Z,97617.72
2022-08-18T19:25:00.579Z,97625.34
2022-08-18T19:27:35.137Z,97630.16
2022-08-18T19:30:11.875Z,97628.28
2022-08-18T19:32:47.826Z,97634.31
2022-08-18T19:35:19.888Z,97638.13
2022-08-18T19:38:04.950Z,97629.72
2022-08-18T19:40:42.611Z,97634.63
2022-08-18T19:43:12.715Z,97643.84
2022-08-18T19:45:55.463Z,97641.81
2022-08-18T19:48:37.537Z,97637.06
2022-08-18T19:51:13.879Z,97640.38
2022-08-18T19:54:04.391Z,97635.47
2022-08-18T19:56:46.349Z,97638.41
2022-08-18T19:59:35.035Z,97637.41
2022-08-18T20:02:41.800Z,97648.84
2022-08-18T20:05:30.649Z,97643.78
2022-08-18T20:08:25.791Z,97647.09
2022-08-18T20:11:15.150Z,97648.88
2022-08-18T20:13:44.699Z,97650.31
2022-08-18T20:16:28.533Z,97654.75
2022-08-18T20:19:30.673Z,97654.59
2022-08-18T20:22:05.320Z,97664.09
2022-08-18T20:24:44.515Z,97669.34
2022-08-18T20:27:32.925Z,97673.78
2022-08-18T20:30:26.543Z,97678.38
2022-08-18T20:33:08.603Z,97673.91
2022-08-18T20:35:53.851Z,97671.84
2022-08-18T20:38:32.630Z,97671.84
2022-08-18T20:41:40.305Z,97678.44
2022-08-18T20:44:42.292Z,97677.78
2022-08-18T20:47:24.092Z,97673.16
2022-08-18T20:50:21.170Z,97694.56
2022-08-18T20:52:47.690Z,97701.50
2022-08-18T20:55:27.351Z,97694.47
2022-08-18T20:58:05.487Z,97701.13
2022-08-18T21:00:36.225Z,97700.03
2022-08-18T21:03:11.760Z,97696.00
2022-08-18T21:05:44.127Z,97694.63
2022-08-18T21:08:29.443Z,97706.06
2022-08-18T21:11:08.239Z,97706.84
2022-08-18T21:13:47.746Z,97712.53
2022-08-18T21:16:38.250Z,97712.53
2022-08-18T21:19:23.429Z,97705.41
2022-08-18T21:21:55.072Z,97703.19
2022-08-18T21:24:29.509Z,97710.94
2022-08-18T21:27:02.546Z,97723.94
2022-08-18T21:29:46.907Z,97734.47
2022-08-18T21:32:22.696Z,97748.53
2022-08-18T21:34:49.949Z,97742.03
2022-08-18T21:37:18.926Z,97736.72
2022-08-18T21:39:58.017Z,97744.91
2022-08-18T21:42:29.738Z,97751.41
2022-08-18T21:45:00.920Z,97741.13
2022-08-18T21:47:35.689Z,97738.91
2022-08-18T21:50:15.809Z,97753.66
2022-08-18T21:53:05.423Z,97769.66
2022-08-18T21:55:37.421Z,97791.25
2022-08-18T22:01:26.006Z,97809.59
2022-08-18T22:04:40.992Z,97802.88
2022-08-18T22:07:34.647Z,97795.03
2022-08-18T22:10:46.105Z,97774.25
2022-08-18T22:13:44.211Z,97758.63
2022-08-18T22:16:30.792Z,97751.97
2022-08-18T22:19:16.509Z,97761.41
2022-08-18T22:22:45.472Z,97764.81
2022-08-18T22:25:22.727Z,97777.84
2022-08-18T22:27:50.397Z,97783.69
2022-08-18T22:30:18.068Z,97803.78
2022-08-18T22:32:46.409Z,97812.56
2022-08-18T22:35:13.066Z,97812.91
2022-08-18T22:37:48.706Z,97816.59
2022-08-18T22:40:17.485Z,97798.69
2022-08-18T22:42:51.305Z,97802.97
2022-08-18T22:45:18.881Z,97792.91
2022-08-18T22:47:46.648Z,97778.19
2022-08-18T22:50:14.093Z,97761.16
2022-08-18T22:52:46.618Z,97742.91
2022-08-18T22:55:18.374Z,97720.16
2022-08-18T22:57:50.276Z,97708.69
2022-08-18T23:00:21.990Z,97683.03
2022-08-18T23:02:49.654Z,97670.28
2022-08-18T23:05:16.508Z,97648.19
2022-08-18T23:07:46.155Z,97647.19
2022-08-18T23:10:14.037Z,97656.03
2022-08-18T23:12:43.242Z,97661.94
2022-08-18T23:15:11.839Z,97667.69
2022-08-18T23:17:40.280Z,97691.19
2022-08-18T23:20:11.508Z,97697.34
2022-08-18T23:22:39.641Z,97694.56
2022-08-18T23:25:09.114Z,97695.47
2022-08-18T23:27:36.608Z,97697.75
2022-08-18T23:30:04.868Z,97712.25
2022-08-18T23:32:39.030Z,97709.56
2022-08-18T23:35:15.060Z,97701.03
2022-08-18T23:37:42.689Z,97714.69
2022-08-18T23:40:15.894Z,97738.53
2022-08-18T23:42:42.695Z,97754.25
2022-08-18T23:45:10.361Z,97756.78
2022-08-18T23:47:37.042Z,97765.13
2022-08-18T23:50:08.438Z,97761.94
2022-08-18T23:52:35.085Z,97764.25
2022-08-18T23:55:09.670Z,97764.16
2022-08-18T23:57:36.679Z,97765.38
